sensor_id;sensor_type;location;lat;lon;timestamp;P1;durP1;ratioP1;P2;durP2;ratioP2
59418;SDS011;45224;50.904;6.038;2022-07-04T00:01:16;1.20;;;0.90;;
59418;SDS011;45224;50.904;6.038;2022-07-04T00:02:47;4.17;;;1.30;;
59418;SDS011;45224;50.904;6.038;2022-07-04T00:04:18;3.85;;;1.10;;
59418;SDS011;45224;50.904;6.038;2022-07-04T00:05:48;2.30;;;1.03;;
59418;SDS011;45224;50.904;6.038;2022-07-04T00:07:19;2.10;;;1.10;;
59418;SDS011;45224;50.904;6.038;2022-07-04T00:08:49;2.43;;;1.00;;
59418;SDS011;45224;50.904;6.038;2022-07-04T00:10:20;2.97;;;1.03;;
59418;SDS011;45224;50.904;6.038;2022-07-04T00:11:51;5.20;;;1.10;;
59418;SDS011;45224;50.904;6.038;2022-07-04T00:13:21;1.63;;;1.00;;
59418;SDS011;45224;50.904;6.038;2022-07-04T00:14:52;2.07;;;1.00;;
59418;SDS011;45224;50.904;6.038;2022-07-04T00:16:22;2.17;;;1.10;;
59418;SDS011;45224;50.904;6.038;2022-07-04T00:17:52;3.30;;;1.10;;
59418;SDS011;45224;50.904;6.038;2022-07-04T00:19:23;2.53;;;1.17;;
59418;SDS011;45224;50.904;6.038;2022-07-04T00:20:53;2.07;;;0.90;;
59418;SDS011;45224;50.904;6.038;2022-07-04T00:22:24;2.63;;;1.17;;
59418;SDS011;45224;50.904;6.038;2022-07-04T00:23:54;2.30;;;1.00;;
59418;SDS011;45224;50.904;6.038;2022-07-04T00:25:25;1.27;;;0.82;;
59418;SDS011;45224;50.904;6.038;2022-07-04T00:26:55;3.08;;;1.27;;
59418;SDS011;45224;50.904;6.038;2022-07-04T00:28:26;5.23;;;1.13;;
59418;SDS011;45224;50.904;6.038;2022-07-04T00:29:57;3.63;;;1.07;;
59418;SDS011;45224;50.904;6.038;2022-07-04T00:31:27;2.30;;;1.15;;
59418;SDS011;45224;50.904;6.038;2022-07-04T00:32:58;1.80;;;0.90;;
59418;SDS011;45224;50.904;6.038;2022-07-04T00:34:28;3.03;;;1.17;;
59418;SDS011;45224;50.904;6.038;2022-07-04T00:35:59;4.00;;;1.10;;
59418;SDS011;45224;50.904;6.038;2022-07-04T00:37:29;1.57;;;0.97;;
59418;SDS011;45224;50.904;6.038;2022-07-04T00:39:00;5.50;;;1.20;;
59418;SDS011;45224;50.904;6.038;2022-07-04T00:40:30;1.90;;;0.90;;
59418;SDS011;45224;50.904;6.038;2022-07-04T00:42:01;1.30;;;0.90;;
59418;SDS011;45224;50.904;6.038;2022-07-04T00:43:31;2.93;;;1.00;;
59418;SDS011;45224;50.904;6.038;2022-07-04T00:45:02;2.13;;;1.10;;
59418;SDS011;45224;50.904;6.038;2022-07-04T00:46:33;3.53;;;1.42;;
59418;SDS011;45224;50.904;6.038;2022-07-04T00:48:04;6.05;;;1.35;;
59418;SDS011;45224;50.904;6.038;2022-07-04T00:49:35;3.95;;;1.30;;
59418;SDS011;45224;50.904;6.038;2022-07-04T00:51:05;2.70;;;1.10;;
59418;SDS011;45224;50.904;6.038;2022-07-04T00:52:36;2.33;;;1.10;;
59418;SDS011;45224;50.904;6.038;2022-07-04T00:54:07;4.77;;;1.20;;
59418;SDS011;45224;50.904;6.038;2022-07-04T00:55:39;3.35;;;1.17;;
59418;SDS011;45224;50.904;6.038;2022-07-04T00:57:11;2.33;;;1.10;;
59418;SDS011;45224;50.904;6.038;2022-07-04T00:58:41;4.70;;;1.23;;
59418;SDS011;45224;50.904;6.038;2022-07-04T01:00:12;3.80;;;1.25;;
59418;SDS011;45224;50.904;6.038;2022-07-04T01:01:43;1.83;;;1.10;;
59418;SDS011;45224;50.904;6.038;2022-07-04T01:03:13;3.47;;;1.20;;
59418;SDS011;45224;50.904;6.038;2022-07-04T01:04:44;2.43;;;1.40;;
59418;SDS011;45224;50.904;6.038;2022-07-04T01:06:15;1.77;;;1.10;;
59418;SDS011;45224;50.904;6.038;2022-07-04T01:09:16;2.43;;;1.00;;
59418;SDS011;45224;50.904;6.038;2022-07-04T01:10:47;3.65;;;1.27;;
59418;SDS011;45224;50.904;6.038;2022-07-04T01:12:24;1.67;;;1.00;;
59418;SDS011;45224;50.904;6.038;2022-07-04T01:13:58;5.57;;;1.40;;
59418;SDS011;45224;50.904;6.038;2022-07-04T01:15:29;5.18;;;1.10;;
59418;SDS011;45224;50.904;6.038;2022-07-04T01:16:59;3.70;;;1.17;;
59418;SDS011;45224;50.904;6.038;2022-07-04T01:18:30;2.43;;;1.10;;
59418;SDS011;45224;50.904;6.038;2022-07-04T01:20:01;3.83;;;1.20;;
59418;SDS011;45224;50.904;6.038;2022-07-04T01:21:32;3.38;;;1.30;;
59418;SDS011;45224;50.904;6.038;2022-07-04T01:23:03;4.80;;;1.38;;
59418;SDS011;45224;50.904;6.038;2022-07-04T01:26:05;2.03;;;1.13;;
59418;SDS011;45224;50.904;6.038;2022-07-04T01:27:36;3.80;;;1.00;;
59418;SDS011;45224;50.904;6.038;2022-07-04T01:29:06;2.60;;;1.20;;
59418;SDS011;45224;50.904;6.038;2022-07-04T01:30:37;6.40;;;1.10;;
59418;SDS011;45224;50.904;6.038;2022-07-04T01:32:08;2.17;;;0.98;;
59418;SDS011;45224;50.904;6.038;2022-07-04T01:33:39;3.85;;;1.20;;
59418;SDS011;45224;50.904;6.038;2022-07-04T01:35:10;2.85;;;0.95;;
59418;SDS011;45224;50.904;6.038;2022-07-04T01:36:42;2.35;;;0.90;;
59418;SDS011;45224;50.904;6.038;2022-07-04T01:38:13;3.60;;;1.30;;
59418;SDS011;45224;50.904;6.038;2022-07-04T01:39:44;4.78;;;1.20;;
59418;SDS011;45224;50.904;6.038;2022-07-04T01:41:14;2.63;;;1.03;;
59418;SDS011;45224;50.904;6.038;2022-07-04T01:42:45;3.80;;;1.30;;
59418;SDS011;45224;50.904;6.038;2022-07-04T01:44:15;2.00;;;1.13;;
59418;SDS011;45224;50.904;6.038;2022-07-04T01:45:46;4.43;;;1.10;;
59418;SDS011;45224;50.904;6.038;2022-07-04T01:47:17;3.15;;;1.15;;
59418;SDS011;45224;50.904;6.038;2022-07-04T01:48:48;2.00;;;0.97;;
59418;SDS011;45224;50.904;6.038;2022-07-04T01:50:18;2.33;;;0.90;;
59418;SDS011;45224;50.904;6.038;2022-07-04T01:51:49;4.32;;;1.10;;
59418;SDS011;45224;50.904;6.038;2022-07-04T01:53:20;1.50;;;0.98;;
59418;SDS011;45224;50.904;6.038;2022-07-04T01:54:51;2.67;;;1.30;;
59418;SDS011;45224;50.904;6.038;2022-07-04T01:56:22;1.98;;;1.10;;
59418;SDS011;45224;50.904;6.038;2022-07-04T01:57:52;3.37;;;1.30;;
59418;SDS011;45224;50.904;6.038;2022-07-04T01:59:23;2.50;;;1.10;;
59418;SDS011;45224;50.904;6.038;2022-07-04T02:01:13;1.98;;;1.30;;
59418;SDS011;45224;50.904;6.038;2022-07-04T02:03:01;2.63;;;1.30;;
59418;SDS011;45224;50.904;6.038;2022-07-04T02:04:32;2.57;;;1.23;;
59418;SDS011;45224;50.904;6.038;2022-07-04T02:06:03;5.30;;;1.50;;
59418;SDS011;45224;50.904;6.038;2022-07-04T02:07:33;3.70;;;1.37;;
59418;SDS011;45224;50.904;6.038;2022-07-04T02:09:04;3.92;;;1.50;;
59418;SDS011;45224;50.904;6.038;2022-07-04T02:10:47;3.15;;;1.40;;
59418;SDS011;45224;50.904;6.038;2022-07-04T02:12:17;3.30;;;1.33;;
59418;SDS011;45224;50.904;6.038;2022-07-04T02:14:06;4.78;;;1.60;;
59418;SDS011;45224;50.904;6.038;2022-07-04T02:15:37;2.43;;;1.30;;
59418;SDS011;45224;50.904;6.038;2022-07-04T02:17:09;3.60;;;1.60;;
59418;SDS011;45224;50.904;6.038;2022-07-04T02:18:40;3.42;;;1.50;;
59418;SDS011;45224;50.904;6.038;2022-07-04T02:20:11;2.47;;;1.67;;
59418;SDS011;45224;50.904;6.038;2022-07-04T02:21:41;5.10;;;1.55;;
59418;SDS011;45224;50.904;6.038;2022-07-04T02:23:13;4.05;;;1.60;;
59418;SDS011;45224;50.904;6.038;2022-07-04T02:24:44;3.23;;;1.90;;
59418;SDS011;45224;50.904;6.038;2022-07-04T02:26:14;4.03;;;1.73;;
59418;SDS011;45224;50.904;6.038;2022-07-04T02:27:44;2.97;;;1.53;;
59418;SDS011;45224;50.904;6.038;2022-07-04T02:29:15;5.68;;;1.70;;
59418;SDS011;45224;50.904;6.038;2022-07-04T02:30:46;3.23;;;1.83;;
59418;SDS011;45224;50.904;6.038;2022-07-04T02:32:16;2.87;;;1.80;;
59418;SDS011;45224;50.904;6.038;2022-07-04T02:33:46;3.53;;;1.87;;
59418;SDS011;45224;50.904;6.038;2022-07-04T02:35:17;2.40;;;1.83;;
59418;SDS011;45224;50.904;6.038;2022-07-04T02:36:47;7.07;;;2.50;;
59418;SDS011;45224;50.904;6.038;2022-07-04T02:38:18;4.97;;;2.85;;
59418;SDS011;45224;50.904;6.038;2022-07-04T02:39:48;6.23;;;3.60;;
59418;SDS011;45224;50.904;6.038;2022-07-04T02:41:19;10.67;;;4.10;;
59418;SDS011;45224;50.904;6.038;2022-07-04T02:42:49;5.10;;;3.53;;
59418;SDS011;45224;50.904;6.038;2022-07-04T02:44:20;6.03;;;3.33;;
59418;SDS011;45224;50.904;6.038;2022-07-04T02:45:50;8.17;;;3.47;;
59418;SDS011;45224;50.904;6.038;2022-07-04T02:47:21;7.67;;;3.10;;
59418;SDS011;45224;50.904;6.038;2022-07-04T02:48:51;4.27;;;2.70;;
59418;SDS011;45224;50.904;6.038;2022-07-04T02:50:22;4.20;;;3.03;;
59418;SDS011;45224;50.904;6.038;2022-07-04T02:51:52;8.37;;;2.90;;
59418;SDS011;45224;50.904;6.038;2022-07-04T02:53:22;6.03;;;2.60;;
59418;SDS011;45224;50.904;6.038;2022-07-04T02:54:53;7.80;;;2.80;;
59418;SDS011;45224;50.904;6.038;2022-07-04T02:56:23;4.23;;;2.67;;
59418;SDS011;45224;50.904;6.038;2022-07-04T02:57:54;4.00;;;2.40;;
59418;SDS011;45224;50.904;6.038;2022-07-04T02:59:24;4.73;;;2.27;;
59418;SDS011;45224;50.904;6.038;2022-07-04T03:00:55;6.03;;;2.67;;
59418;SDS011;45224;50.904;6.038;2022-07-04T03:02:25;7.13;;;2.77;;
59418;SDS011;45224;50.904;6.038;2022-07-04T03:03:55;6.37;;;2.60;;
59418;SDS011;45224;50.904;6.038;2022-07-04T03:05:26;5.77;;;2.40;;
59418;SDS011;45224;50.904;6.038;2022-07-04T03:06:58;6.40;;;2.72;;
59418;SDS011;45224;50.904;6.038;2022-07-04T03:08:29;4.38;;;2.67;;
59418;SDS011;45224;50.904;6.038;2022-07-04T03:09:59;4.63;;;2.57;;
59418;SDS011;45224;50.904;6.038;2022-07-04T03:11:30;5.90;;;2.57;;
59418;SDS011;45224;50.904;6.038;2022-07-04T03:13:00;2.80;;;2.33;;
59418;SDS011;45224;50.904;6.038;2022-07-04T03:14:31;5.17;;;2.60;;
59418;SDS011;45224;50.904;6.038;2022-07-04T03:16:01;7.30;;;2.50;;
59418;SDS011;45224;50.904;6.038;2022-07-04T03:17:32;4.50;;;2.77;;
59418;SDS011;45224;50.904;6.038;2022-07-04T03:19:02;4.97;;;2.75;;
59418;SDS011;45224;50.904;6.038;2022-07-04T03:20:33;4.70;;;2.57;;
59418;SDS011;45224;50.904;6.038;2022-07-04T03:22:03;5.87;;;2.93;;
59418;SDS011;45224;50.904;6.038;2022-07-04T03:23:34;9.38;;;2.88;;
59418;SDS011;45224;50.904;6.038;2022-07-04T03:25:04;5.63;;;3.10;;
59418;SDS011;45224;50.904;6.038;2022-07-04T03:26:35;4.50;;;2.50;;
59418;SDS011;45224;50.904;6.038;2022-07-04T03:28:06;7.72;;;2.58;;
59418;SDS011;45224;50.904;6.038;2022-07-04T03:29:37;4.55;;;3.05;;
59418;SDS011;45224;50.904;6.038;2022-07-04T03:31:07;6.17;;;2.90;;
59418;SDS011;45224;50.904;6.038;2022-07-04T03:32:38;5.93;;;2.60;;
59418;SDS011;45224;50.904;6.038;2022-07-04T03:34:08;7.22;;;3.10;;
59418;SDS011;45224;50.904;6.038;2022-07-04T03:35:39;7.33;;;2.80;;
59418;SDS011;45224;50.904;6.038;2022-07-04T03:37:09;7.53;;;2.83;;
59418;SDS011;45224;50.904;6.038;2022-07-04T03:38:40;5.47;;;2.70;;
59418;SDS011;45224;50.904;6.038;2022-07-04T03:40:10;6.97;;;2.90;;
59418;SDS011;45224;50.904;6.038;2022-07-04T03:41:41;4.37;;;2.70;;
59418;SDS011;45224;50.904;6.038;2022-07-04T03:43:11;5.67;;;3.00;;
59418;SDS011;45224;50.904;6.038;2022-07-04T03:44:42;5.23;;;3.30;;
59418;SDS011;45224;50.904;6.038;2022-07-04T03:46:12;4.60;;;3.07;;
59418;SDS011;45224;50.904;6.038;2022-07-04T03:47:43;8.43;;;2.90;;
59418;SDS011;45224;50.904;6.038;2022-07-04T03:49:13;5.70;;;3.20;;
59418;SDS011;45224;50.904;6.038;2022-07-04T03:50:43;6.63;;;3.17;;
59418;SDS011;45224;50.904;6.038;2022-07-04T03:52:14;7.15;;;3.15;;
59418;SDS011;45224;50.904;6.038;2022-07-04T03:53:45;8.87;;;3.40;;
59418;SDS011;45224;50.904;6.038;2022-07-04T03:55:15;12.53;;;4.10;;
59418;SDS011;45224;50.904;6.038;2022-07-04T03:56:46;8.05;;;4.18;;
59418;SDS011;45224;50.904;6.038;2022-07-04T03:58:16;7.40;;;4.13;;
59418;SDS011;45224;50.904;6.038;2022-07-04T03:59:47;7.70;;;5.43;;
59418;SDS011;45224;50.904;6.038;2022-07-04T04:01:18;12.98;;;7.20;;
59418;SDS011;45224;50.904;6.038;2022-07-04T04:02:49;14.25;;;9.32;;
59418;SDS011;45224;50.904;6.038;2022-07-04T04:04:19;20.33;;;9.37;;
59418;SDS011;45224;50.904;6.038;2022-07-04T04:06:08;21.05;;;9.30;;
59418;SDS011;45224;50.904;6.038;2022-07-04T04:07:39;14.30;;;8.90;;
59418;SDS011;45224;50.904;6.038;2022-07-04T04:09:09;14.73;;;8.38;;
59418;SDS011;45224;50.904;6.038;2022-07-04T04:10:46;12.68;;;7.85;;
59418;SDS011;45224;50.904;6.038;2022-07-04T04:12:16;12.23;;;8.03;;
59418;SDS011;45224;50.904;6.038;2022-07-04T04:13:47;19.53;;;8.37;;
59418;SDS011;45224;50.904;6.038;2022-07-04T04:15:17;11.47;;;6.67;;
59418;SDS011;45224;50.904;6.038;2022-07-04T04:16:48;9.43;;;6.03;;
59418;SDS011;45224;50.904;6.038;2022-07-04T04:18:18;20.13;;;6.37;;
59418;SDS011;45224;50.904;6.038;2022-07-04T04:19:49;12.00;;;5.60;;
59418;SDS011;45224;50.904;6.038;2022-07-04T04:21:19;10.63;;;5.23;;
59418;SDS011;45224;50.904;6.038;2022-07-04T04:22:50;8.43;;;5.03;;
59418;SDS011;45224;50.904;6.038;2022-07-04T04:24:20;7.97;;;4.77;;
59418;SDS011;45224;50.904;6.038;2022-07-04T04:25:51;7.97;;;5.00;;
59418;SDS011;45224;50.904;6.038;2022-07-04T04:27:21;8.43;;;4.15;;
59418;SDS011;45224;50.904;6.038;2022-07-04T04:28:52;15.03;;;4.37;;
59418;SDS011;45224;50.904;6.038;2022-07-04T04:30:22;7.03;;;4.20;;
59418;SDS011;45224;50.904;6.038;2022-07-04T04:31:53;8.60;;;3.57;;
59418;SDS011;45224;50.904;6.038;2022-07-04T04:33:23;10.57;;;4.30;;
59418;SDS011;45224;50.904;6.038;2022-07-04T04:34:54;6.03;;;3.37;;
59418;SDS011;45224;50.904;6.038;2022-07-04T04:36:24;12.20;;;4.20;;
59418;SDS011;45224;50.904;6.038;2022-07-04T04:37:55;7.03;;;3.90;;
59418;SDS011;45224;50.904;6.038;2022-07-04T04:39:25;7.57;;;4.10;;
59418;SDS011;45224;50.904;6.038;2022-07-04T04:40:56;7.27;;;4.00;;
59418;SDS011;45224;50.904;6.038;2022-07-04T04:42:27;8.40;;;4.33;;
59418;SDS011;45224;50.904;6.038;2022-07-04T04:45:28;9.37;;;3.43;;
59418;SDS011;45224;50.904;6.038;2022-07-04T04:46:58;10.70;;;3.77;;
59418;SDS011;45224;50.904;6.038;2022-07-04T04:48:29;11.20;;;4.00;;
59418;SDS011;45224;50.904;6.038;2022-07-04T04:49:59;11.47;;;3.80;;
59418;SDS011;45224;50.904;6.038;2022-07-04T04:51:30;9.40;;;3.85;;
59418;SDS011;45224;50.904;6.038;2022-07-04T04:53:01;13.33;;;3.80;;
59418;SDS011;45224;50.904;6.038;2022-07-04T04:54:33;10.48;;;4.40;;
59418;SDS011;45224;50.904;6.038;2022-07-04T04:56:03;9.43;;;4.70;;
59418;SDS011;45224;50.904;6.038;2022-07-04T04:57:34;8.88;;;3.95;;
59418;SDS011;45224;50.904;6.038;2022-07-04T04:59:05;9.07;;;3.83;;
59418;SDS011;45224;50.904;6.038;2022-07-04T05:00:35;6.53;;;4.33;;
59418;SDS011;45224;50.904;6.038;2022-07-04T05:02:06;9.57;;;4.70;;
59418;SDS011;45224;50.904;6.038;2022-07-04T05:03:36;5.40;;;3.50;;
59418;SDS011;45224;50.904;6.038;2022-07-04T05:05:07;10.83;;;4.50;;
59418;SDS011;45224;50.904;6.038;2022-07-04T05:06:37;9.65;;;4.20;;
59418;SDS011;45224;50.904;6.038;2022-07-04T05:08:08;7.30;;;3.90;;
59418;SDS011;45224;50.904;6.038;2022-07-04T05:09:38;10.07;;;3.50;;
59418;SDS011;45224;50.904;6.038;2022-07-04T05:11:09;8.57;;;3.33;;
59418;SDS011;45224;50.904;6.038;2022-07-04T05:12:40;5.30;;;3.38;;
59418;SDS011;45224;50.904;6.038;2022-07-04T05:14:10;8.23;;;3.30;;
59418;SDS011;45224;50.904;6.038;2022-07-04T05:15:40;9.13;;;3.80;;
59418;SDS011;45224;50.904;6.038;2022-07-04T05:17:11;5.67;;;3.53;;
59418;SDS011;45224;50.904;6.038;2022-07-04T05:18:41;5.60;;;3.03;;
59418;SDS011;45224;50.904;6.038;2022-07-04T05:20:12;11.07;;;3.47;;
59418;SDS011;45224;50.904;6.038;2022-07-04T05:21:42;7.35;;;3.58;;
59418;SDS011;45224;50.904;6.038;2022-07-04T05:23:13;11.20;;;3.63;;
59418;SDS011;45224;50.904;6.038;2022-07-04T05:24:43;8.87;;;3.40;;
59418;SDS011;45224;50.904;6.038;2022-07-04T05:26:14;14.18;;;3.58;;
59418;SDS011;45224;50.904;6.038;2022-07-04T05:27:44;6.57;;;3.90;;
59418;SDS011;45224;50.904;6.038;2022-07-04T05:29:15;6.77;;;3.20;;
59418;SDS011;45224;50.904;6.038;2022-07-04T05:30:45;22.67;;;3.30;;
59418;SDS011;45224;50.904;6.038;2022-07-04T05:32:16;4.97;;;3.47;;
59418;SDS011;45224;50.904;6.038;2022-07-04T05:33:46;13.93;;;3.57;;
59418;SDS011;45224;50.904;6.038;2022-07-04T05:35:17;5.93;;;3.33;;
59418;SDS011;45224;50.904;6.038;2022-07-04T05:36:47;8.80;;;3.60;;
59418;SDS011;45224;50.904;6.038;2022-07-04T05:38:17;6.43;;;3.10;;
59418;SDS011;45224;50.904;6.038;2022-07-04T05:39:48;10.02;;;3.35;;
59418;SDS011;45224;50.904;6.038;2022-07-04T05:41:19;9.65;;;3.38;;
59418;SDS011;45224;50.904;6.038;2022-07-04T05:42:49;8.23;;;3.43;;
59418;SDS011;45224;50.904;6.038;2022-07-04T05:44:20;11.50;;;3.43;;
59418;SDS011;45224;50.904;6.038;2022-07-04T05:45:51;5.77;;;3.00;;
59418;SDS011;45224;50.904;6.038;2022-07-04T05:47:21;9.13;;;2.90;;
59418;SDS011;45224;50.904;6.038;2022-07-04T05:48:55;10.13;;;2.85;;
59418;SDS011;45224;50.904;6.038;2022-07-04T05:50:25;7.05;;;2.75;;
59418;SDS011;45224;50.904;6.038;2022-07-04T05:51:56;8.87;;;2.90;;
59418;SDS011;45224;50.904;6.038;2022-07-04T05:53:26;10.07;;;2.47;;
59418;SDS011;45224;50.904;6.038;2022-07-04T05:54:57;8.70;;;2.83;;
59418;SDS011;45224;50.904;6.038;2022-07-04T05:56:27;7.00;;;2.70;;
59418;SDS011;45224;50.904;6.038;2022-07-04T05:57:58;8.38;;;2.95;;
59418;SDS011;45224;50.904;6.038;2022-07-04T05:59:28;11.03;;;2.77;;
59418;SDS011;45224;50.904;6.038;2022-07-04T06:00:59;13.00;;;2.70;;
59418;SDS011;45224;50.904;6.038;2022-07-04T06:02:29;5.10;;;2.60;;
59418;SDS011;45224;50.904;6.038;2022-07-04T06:04:00;13.97;;;2.53;;
59418;SDS011;45224;50.904;6.038;2022-07-04T06:05:30;7.53;;;3.10;;
59418;SDS011;45224;50.904;6.038;2022-07-04T06:07:02;7.72;;;3.00;;
59418;SDS011;45224;50.904;6.038;2022-07-04T06:08:32;8.95;;;2.60;;
59418;SDS011;45224;50.904;6.038;2022-07-04T06:10:04;8.10;;;2.22;;
59418;SDS011;45224;50.904;6.038;2022-07-04T06:11:35;8.38;;;2.45;;
59418;SDS011;45224;50.904;6.038;2022-07-04T06:13:06;7.38;;;2.83;;
59418;SDS011;45224;50.904;6.038;2022-07-04T06:14:36;5.03;;;2.05;;
59418;SDS011;45224;50.904;6.038;2022-07-04T06:16:07;7.47;;;2.30;;
59418;SDS011;45224;50.904;6.038;2022-07-04T06:17:37;10.43;;;2.30;;
59418;SDS011;45224;50.904;6.038;2022-07-04T06:19:08;10.85;;;2.28;;
59418;SDS011;45224;50.904;6.038;2022-07-04T06:20:38;11.45;;;2.33;;
59418;SDS011;45224;50.904;6.038;2022-07-04T06:22:12;8.35;;;1.85;;
59418;SDS011;45224;50.904;6.038;2022-07-04T06:23:42;6.13;;;2.28;;
59418;SDS011;45224;50.904;6.038;2022-07-04T06:25:14;11.10;;;2.53;;
59418;SDS011;45224;50.904;6.038;2022-07-04T06:26:45;7.78;;;2.42;;
59418;SDS011;45224;50.904;6.038;2022-07-04T06:28:15;7.47;;;2.00;;
59418;SDS011;45224;50.904;6.038;2022-07-04T06:29:47;7.82;;;2.45;;
59418;SDS011;45224;50.904;6.038;2022-07-04T06:31:17;5.27;;;2.00;;
59418;SDS011;45224;50.904;6.038;2022-07-04T06:32:49;5.93;;;2.10;;
59418;SDS011;45224;50.904;6.038;2022-07-04T06:34:20;6.45;;;2.20;;
59418;SDS011;45224;50.904;6.038;2022-07-04T06:36:10;12.40;;;2.40;;
59418;SDS011;45224;50.904;6.038;2022-07-04T06:37:40;7.43;;;2.10;;
59418;SDS011;45224;50.904;6.038;2022-07-04T06:39:11;8.60;;;2.43;;
59418;SDS011;45224;50.904;6.038;2022-07-04T06:40:42;4.85;;;2.17;;
59418;SDS011;45224;50.904;6.038;2022-07-04T06:42:13;9.10;;;2.47;;
59418;SDS011;45224;50.904;6.038;2022-07-04T06:43:43;7.63;;;2.20;;
59418;SDS011;45224;50.904;6.038;2022-07-04T06:45:14;4.65;;;1.83;;
59418;SDS011;45224;50.904;6.038;2022-07-04T06:46:44;7.97;;;2.23;;
59418;SDS011;45224;50.904;6.038;2022-07-04T06:48:16;5.03;;;2.00;;
59418;SDS011;45224;50.904;6.038;2022-07-04T06:49:46;7.07;;;2.20;;
59418;SDS011;45224;50.904;6.038;2022-07-04T06:51:16;8.27;;;2.50;;
59418;SDS011;45224;50.904;6.038;2022-07-04T06:52:47;8.90;;;1.93;;
59418;SDS011;45224;50.904;6.038;2022-07-04T06:54:18;10.88;;;2.58;;
59418;SDS011;45224;50.904;6.038;2022-07-04T06:55:48;7.20;;;2.13;;
59418;SDS011;45224;50.904;6.038;2022-07-04T06:57:18;4.93;;;2.13;;
59418;SDS011;45224;50.904;6.038;2022-07-04T06:58:49;8.40;;;2.87;;
59418;SDS011;45224;50.904;6.038;2022-07-04T07:00:19;9.10;;;2.08;;
59418;SDS011;45224;50.904;6.038;2022-07-04T07:01:50;8.47;;;2.17;;
59418;SDS011;45224;50.904;6.038;2022-07-04T07:03:20;4.80;;;1.85;;
59418;SDS011;45224;50.904;6.038;2022-07-04T07:04:51;7.85;;;1.83;;
59418;SDS011;45224;50.904;6.038;2022-07-04T07:06:24;4.82;;;1.85;;
59418;SDS011;45224;50.904;6.038;2022-07-04T07:07:54;4.53;;;1.80;;
59418;SDS011;45224;50.904;6.038;2022-07-04T07:09:25;8.30;;;1.90;;
59418;SDS011;45224;50.904;6.038;2022-07-04T07:10:56;9.37;;;2.30;;
59418;SDS011;45224;50.904;6.038;2022-07-04T07:12:27;10.48;;;2.17;;
59418;SDS011;45224;50.904;6.038;2022-07-04T07:13:57;7.83;;;2.20;;
59418;SDS011;45224;50.904;6.038;2022-07-04T07:15:28;6.45;;;1.92;;
59418;SDS011;45224;50.904;6.038;2022-07-04T07:16:59;7.72;;;1.65;;
59418;SDS011;45224;50.904;6.038;2022-07-04T07:18:30;6.25;;;1.77;;
59418;SDS011;45224;50.904;6.038;2022-07-04T07:20:00;5.70;;;1.98;;
59418;SDS011;45224;50.904;6.038;2022-07-04T07:21:30;6.90;;;1.83;;
59418;SDS011;45224;50.904;6.038;2022-07-04T07:23:02;6.68;;;1.90;;
59418;SDS011;45224;50.904;6.038;2022-07-04T07:24:33;3.92;;;1.70;;
59418;SDS011;45224;50.904;6.038;2022-07-04T07:26:03;9.53;;;2.00;;
59418;SDS011;45224;50.904;6.038;2022-07-04T07:27:34;4.63;;;1.55;;
59418;SDS011;45224;50.904;6.038;2022-07-04T07:29:04;5.88;;;1.63;;
59418;SDS011;45224;50.904;6.038;2022-07-04T07:30:35;7.38;;;1.63;;
59418;SDS011;45224;50.904;6.038;2022-07-04T07:32:06;6.72;;;1.70;;
59418;SDS011;45224;50.904;6.038;2022-07-04T07:33:37;14.57;;;2.75;;
59418;SDS011;45224;50.904;6.038;2022-07-04T07:35:07;6.55;;;1.90;;
59418;SDS011;45224;50.904;6.038;2022-07-04T07:36:38;9.07;;;1.85;;
59418;SDS011;45224;50.904;6.038;2022-07-04T07:38:09;4.80;;;1.67;;
59418;SDS011;45224;50.904;6.038;2022-07-04T07:39:39;5.63;;;1.65;;
59418;SDS011;45224;50.904;6.038;2022-07-04T07:41:10;9.13;;;1.95;;
59418;SDS011;45224;50.904;6.038;2022-07-04T07:42:40;5.65;;;2.05;;
59418;SDS011;45224;50.904;6.038;2022-07-04T07:44:11;9.40;;;1.83;;
59418;SDS011;45224;50.904;6.038;2022-07-04T07:45:41;7.88;;;1.75;;
59418;SDS011;45224;50.904;6.038;2022-07-04T07:47:12;6.28;;;1.33;;
59418;SDS011;45224;50.904;6.038;2022-07-04T07:48:43;8.63;;;1.85;;
59418;SDS011;45224;50.904;6.038;2022-07-04T07:50:14;9.18;;;2.00;;
59418;SDS011;45224;50.904;6.038;2022-07-04T07:51:44;6.88;;;1.65;;
59418;SDS011;45224;50.904;6.038;2022-07-04T07:53:15;7.32;;;1.65;;
59418;SDS011;45224;50.904;6.038;2022-07-04T07:56:16;8.13;;;1.90;;
59418;SDS011;45224;50.904;6.038;2022-07-04T07:57:47;7.80;;;2.05;;
59418;SDS011;45224;50.904;6.038;2022-07-04T07:59:17;5.68;;;1.85;;
59418;SDS011;45224;50.904;6.038;2022-07-04T08:00:48;9.95;;;1.80;;
59418;SDS011;45224;50.904;6.038;2022-07-04T08:02:18;8.20;;;1.55;;
59418;SDS011;45224;50.904;6.038;2022-07-04T08:03:49;6.10;;;1.45;;
59418;SDS011;45224;50.904;6.038;2022-07-04T08:05:38;7.75;;;1.88;;
59418;SDS011;45224;50.904;6.038;2022-07-04T08:07:10;4.47;;;1.70;;
59418;SDS011;45224;50.904;6.038;2022-07-04T08:08:44;6.55;;;2.15;;
59418;SDS011;45224;50.904;6.038;2022-07-04T08:11:45;6.45;;;1.55;;
59418;SDS011;45224;50.904;6.038;2022-07-04T08:13:16;5.82;;;1.75;;
59418;SDS011;45224;50.904;6.038;2022-07-04T08:16:17;9.73;;;1.37;;
59418;SDS011;45224;50.904;6.038;2022-07-04T08:19:18;7.73;;;1.27;;
59418;SDS011;45224;50.904;6.038;2022-07-04T08:22:19;3.57;;;1.00;;
59418;SDS011;45224;50.904;6.038;2022-07-04T08:25:20;10.63;;;1.00;;
59418;SDS011;45224;50.904;6.038;2022-07-04T08:28:21;3.50;;;1.10;;
59418;SDS011;45224;50.904;6.038;2022-07-04T08:29:52;4.63;;;0.90;;
59418;SDS011;45224;50.904;6.038;2022-07-04T08:32:57;4.93;;;1.00;;
59418;SDS011;45224;50.904;6.038;2022-07-04T08:34:27;4.53;;;1.05;;
59418;SDS011;45224;50.904;6.038;2022-07-04T08:35:58;4.20;;;0.90;;
59418;SDS011;45224;50.904;6.038;2022-07-04T08:37:28;3.85;;;0.90;;
59418;SDS011;45224;50.904;6.038;2022-07-04T08:38:59;3.03;;;0.65;;
59418;SDS011;45224;50.904;6.038;2022-07-04T08:40:29;5.40;;;1.00;;
59418;SDS011;45224;50.904;6.038;2022-07-04T08:42:02;3.53;;;0.90;;
59418;SDS011;45224;50.904;6.038;2022-07-04T08:43:35;3.67;;;1.05;;
59418;SDS011;45224;50.904;6.038;2022-07-04T08:45:07;3.42;;;0.85;;
59418;SDS011;45224;50.904;6.038;2022-07-04T08:46:38;3.28;;;0.90;;
59418;SDS011;45224;50.904;6.038;2022-07-04T08:48:10;3.53;;;0.73;;
59418;SDS011;45224;50.904;6.038;2022-07-04T08:49:40;3.45;;;0.73;;
59418;SDS011;45224;50.904;6.038;2022-07-04T08:51:16;2.35;;;0.80;;
59418;SDS011;45224;50.904;6.038;2022-07-04T08:52:59;2.08;;;0.70;;
59418;SDS011;45224;50.904;6.038;2022-07-04T08:54:32;4.72;;;0.80;;
59418;SDS011;45224;50.904;6.038;2022-07-04T08:56:22;4.18;;;0.80;;
59418;SDS011;45224;50.904;6.038;2022-07-04T08:58:11;4.88;;;0.77;;
59418;SDS011;45224;50.904;6.038;2022-07-04T08:59:59;3.70;;;0.70;;
59418;SDS011;45224;50.904;6.038;2022-07-04T09:01:31;2.75;;;0.80;;
59418;SDS011;45224;50.904;6.038;2022-07-04T09:03:03;2.85;;;0.88;;
59418;SDS011;45224;50.904;6.038;2022-07-04T09:04:34;5.97;;;1.05;;
59418;SDS011;45224;50.904;6.038;2022-07-04T09:06:05;4.03;;;0.77;;
59418;SDS011;45224;50.904;6.038;2022-07-04T09:07:36;2.30;;;0.60;;
59418;SDS011;45224;50.904;6.038;2022-07-04T09:09:06;3.75;;;0.90;;
59418;SDS011;45224;50.904;6.038;2022-07-04T09:10:38;2.72;;;0.88;;
59418;SDS011;45224;50.904;6.038;2022-07-04T09:12:09;3.83;;;1.20;;
59418;SDS011;45224;50.904;6.038;2022-07-04T09:13:40;4.90;;;1.00;;
59418;SDS011;45224;50.904;6.038;2022-07-04T09:15:10;1.95;;;0.80;;
59418;SDS011;45224;50.904;6.038;2022-07-04T09:16:41;2.70;;;1.00;;
59418;SDS011;45224;50.904;6.038;2022-07-04T09:20:14;4.50;;;1.10;;
59418;SDS011;45224;50.904;6.038;2022-07-04T09:21:49;3.90;;;1.15;;
59418;SDS011;45224;50.904;6.038;2022-07-04T09:23:20;4.63;;;0.85;;
59418;SDS011;45224;50.904;6.038;2022-07-04T09:24:55;4.32;;;1.00;;
59418;SDS011;45224;50.904;6.038;2022-07-04T09:26:26;5.03;;;1.20;;
59418;SDS011;45224;50.904;6.038;2022-07-04T09:27:56;5.20;;;1.45;;